Observations for Trim Market St
| Time | AQI | Temp °C | Hum % | Pres Pa | CO μg/m³ | H₂S μg/m³ | NO μg/m³ | NO₂ μg/m³ | O₃ μg/m³ | SO₂ μg/m³ | PM1 μg/m³ | PM2.5 μg/m³ | PM10 μg/m³ |
|---|---|---|---|---|---|---|---|---|---|---|---|---|---|
| Thursday 9 July 2026 | |||||||||||||
| 00:06 | 1 | 20.4 | 67 | 55,887 | 0 | 0 | 0 | 7.2 | 13.21 | 0 | 0.71 | 1.71 | 3.03 |
| 00:05 | 1 | 20.4 | 67 | 55,940 | 0 | 0 | 0 | 10.11 | 12.68 | 0 | 0 | 1.71 | 3.03 |
| 00:04 | 1 | 20.5 | 67 | 56,000 | 0 | 0 | 0 | 4.48 | 12.25 | 0 | 0 | 1.71 | 3.03 |
| 00:02 | 1 | 20.5 | 67 | 56,075 | 0 | 0 | 0 | 7.09 | 10.51 | 0 | 0 | 1.72 | 3.03 |
| 00:01 | 1 | 20.6 | 67 | 56,116 | 0 | 0 | 0 | 5.28 | 11.99 | 0 | 0 | 1.72 | 3.67 |
| 00:00 | 1 | 20.6 | 67 | 56,144 | 0 | 0 | 0 | 7.68 | 14.46 | 0 | 0 | 1.72 | 3.67 |
| Wednesday 8 July 2026 | |||||||||||||
| 23:58 | 1 | 20.6 | 67 | 56,212 | 0 | 0 | 0 | 5.7 | 13.83 | 0 | 0 | 1.73 | 3.01 |
| 23:57 | 1 | 20.7 | 67 | 56,241 | 0 | 0 | 0 | 7.77 | 11.39 | 0 | 0 | 1.73 | 3.01 |
| 23:56 | 1 | 20.7 | 67 | 56,276 | 0 | 0 | 0 | 6.57 | 10.84 | 0 | 0 | 2.22 | 4.3 |
| 23:52 | 1 | 20.8 | 67 | 56,358 | 0 | 0 | 0 | 6.88 | 14.05 | 0 | 0 | 1.25 | 2.35 |
| 23:46 | 1 | 20.9 | 66 | 56,544 | 0 | 0 | 0 | 7.3 | 11.02 | 0 | 0 | 1.76 | 2.98 |
| 23:45 | 1 | 21 | 66 | 56,573 | 0 | 0 | 0 | 10.38 | 12.18 | 0 | 0 | 1.76 | 2.98 |
| 23:40 | 1 | 21.1 | 66 | 56,681 | 0 | 0 | 0 | 3.28 | 15.17 | 0 | 0.71 | 2.76 | 4.27 |
| 23:38 | 1 | 21.1 | 66 | 56,706 | 0 | 0 | 0 | 6.8 | 10.42 | 0 | 0 | 1.78 | 2.96 |
| 23:37 | 1 | 21.1 | 66 | 56,725 | 0 | 0 | 0 | 5.41 | 11.45 | 0 | 0 | 1.78 | 2.96 |
| 23:36 | 1 | 21.2 | 66 | 56,739 | 0 | 0 | 0 | 6.39 | 14 | 0 | 0.71 | 2.28 | 3.61 |
| 23:35 | 1 | 21.2 | 66 | 56,759 | 0 | 0 | 0 | 6.7 | 12.65 | 0 | 0 | 1.79 | 2.95 |
| 23:34 | 1 | 21.2 | 66 | 56,782 | 0 | 0 | 0 | 6.7 | 11.57 | 0 | 0 | 2.28 | 3.61 |
| 23:33 | 1 | 21.2 | 65 | 56,801 | 0 | 0 | 0 | 5.01 | 12.03 | 0 | 0 | 1.79 | 2.95 |
| 23:32 | 1 | 21.3 | 65 | 56,813 | 0 | 0 | 0 | 6.78 | 15.12 | 0 | 0 | 1.79 | 2.95 |